Time;durP1;ratioP1;P1;durP2;ratioP2;P2;SDS_P1;SDS_P2;PMS_P1;PMS_P2;Temp;Humidity;BMP_temperature;BMP_pressure;BME280_temperature;BME280_humidity;BME280_pressure;Samples;Min_cycle;Max_cycle;Signal;HPM_P1;HPM_P2
2022/08/16 00:01:12;;;;;;;10.57;4.07;;;21.40;92.90;;;;;;5099477;28;20050;-44
2022/08/16 00:03:39;;;;;;;6.50;3.70;;;21.40;92.80;;;;;;5092433;28;20502;-41
2022/08/16 00:06:06;;;;;;;5.82;4.10;;;21.50;92.70;;;;;;5098649;28;20077;-43
2022/08/16 00:08:35;;;;;;;6.68;4.40;;;21.50;92.60;;;;;;5113155;28;20035;-50
2022/08/16 00:11:03;;;;;;;5.78;4.10;;;21.40;92.60;;;;;;5110226;28;20114;-51
2022/08/16 00:13:31;;;;;;;5.90;3.80;;;21.40;92.60;;;;;;5113109;28;20085;-45
2022/08/16 00:16:07;;;;;;;7.20;4.25;;;21.50;92.50;;;;;;5113142;28;20134;-45
2022/08/16 00:18:54;;;;;;;5.57;3.85;;;21.40;92.40;;;;;;5095839;28;20843;-42
2022/08/16 00:21:21;;;;;;;7.68;4.25;;;21.40;92.20;;;;;;5092404;28;20462;-49
2022/08/16 00:23:48;;;;;;;5.60;4.10;;;21.40;92.20;;;;;;5102982;28;20118;-52
2022/08/16 00:26:16;;;;;;;9.95;4.22;;;21.40;92.30;;;;;;5098984;28;20040;-44
2022/08/16 00:29:03;;;;;;;5.85;4.25;;;21.30;92.30;;;;;;5092962;28;20036;-47
2022/08/16 00:31:30;;;;;;;6.82;4.35;;;21.30;92.30;;;;;;5096868;28;20390;-49
2022/08/16 00:34:17;;;;;;;5.57;4.30;;;21.30;92.20;;;;;;5089042;28;20039;-45
2022/08/16 00:36:47;;;;;;;6.38;4.63;;;21.30;92.40;;;;;;5110432;28;20043;-48
2022/08/16 00:39:21;;;;;;;6.00;4.28;;;21.30;92.30;;;;;;5106496;28;20044;-49
2022/08/16 00:41:48;;;;;;;7.38;4.15;;;21.20;92.40;;;;;;5093683;28;20044;-48
2022/08/16 00:44:15;;;;;;;8.35;5.05;;;21.20;92.40;;;;;;5100082;28;20047;-48
2022/08/16 00:46:45;;;;;;;6.75;4.28;;;21.20;92.50;;;;;;5097757;28;20963;-48
2022/08/16 00:49:28;;;;;;;9.00;4.40;;;21.10;92.50;;;;;;5111549;28;20123;-44
2022/08/16 00:52:05;;;;;;;9.40;4.07;;;21.10;92.50;;;;;;5107640;28;20043;-43
2022/08/16 00:54:52;;;;;;;6.40;4.72;;;21.10;92.60;;;;;;5099933;28;20050;-43
2022/08/16 00:57:19;;;;;;;7.30;4.60;;;21.00;92.70;;;;;;5096802;28;20075;-46
2022/08/16 00:59:49;;;;;;;5.68;4.40;;;21.00;92.80;;;;;;5096615;28;20101;-46
2022/08/16 01:02:24;;;;;;;8.35;5.85;;;21.00;92.80;;;;;;5095548;28;20121;-50
2022/08/16 01:04:58;;;;;;;7.43;4.63;;;21.00;92.90;;;;;;5109164;28;20028;-48
2022/08/16 01:07:37;;;;;;;7.43;5.07;;;21.00;93.10;;;;;;5094716;28;20048;-40
2022/08/16 01:10:16;;;;;;;5.70;5.05;;;21.00;93.20;;;;;;5095493;28;20044;-40
2022/08/16 01:12:43;;;;;;;6.70;5.13;;;20.90;93.30;;;;;;5096610;28;20044;-43
2022/08/16 01:15:11;;;;;;;6.18;4.40;;;20.90;93.20;;;;;;5095347;28;20056;-48
2022/08/16 01:17:38;;;;;;;8.60;5.18;;;20.90;93.30;;;;;;5094418;28;20074;-44
2022/08/16 01:20:07;;;;;;;8.30;5.05;;;20.90;93.30;;;;;;5110825;28;20040;-44
2022/08/16 01:22:50;;;;;;;7.03;5.40;;;20.90;93.50;;;;;;5115907;28;20042;-45
2022/08/16 01:25:18;;;;;;;9.93;5.60;;;20.90;93.50;;;;;;5122315;27;20039;-45
2022/08/16 01:27:47;;;;;;;6.30;5.15;;;20.90;93.50;;;;;;5116058;28;20044;-45
2022/08/16 01:30:14;;;;;;;6.95;5.60;;;20.90;93.70;;;;;;5114463;28;20046;-46
2022/08/16 01:32:48;;;;;;;6.78;5.35;;;20.90;93.60;;;;;;5109434;28;20098;-47
2022/08/16 01:35:30;;;;;;;11.32;6.00;;;20.80;93.70;;;;;;5094771;28;20048;-50
2022/08/16 01:38:02;;;;;;;10.05;5.53;;;20.90;93.70;;;;;;5088969;28;20080;-44
2022/08/16 01:40:30;;;;;;;6.35;5.20;;;20.90;93.80;;;;;;5101126;28;20052;-50
2022/08/16 01:42:57;;;;;;;6.78;5.40;;;20.90;93.90;;;;;;5114477;28;20050;-54
2022/08/16 01:45:24;;;;;;;8.82;5.85;;;20.80;93.90;;;;;;5114240;28;20558;-43
2022/08/16 01:48:06;;;;;;;6.32;5.38;;;20.80;93.90;;;;;;5110545;28;20044;-45
2022/08/16 01:50:46;;;;;;;8.68;5.57;;;20.80;94.00;;;;;;5095963;28;20067;-48
2022/08/16 01:53:33;;;;;;;9.45;6.78;;;20.80;94.10;;;;;;5093498;28;20036;-48
2022/08/16 01:56:11;;;;;;;8.40;6.03;;;20.80;94.10;;;;;;5091284;28;20040;-51
2022/08/16 01:58:51;;;;;;;7.13;6.18;;;20.80;94.30;;;;;;5094416;28;20044;-48
2022/08/16 02:01:18;;;;;;;8.82;6.00;;;20.80;94.30;;;;;;5094338;28;20106;-46
2022/08/16 02:03:46;;;;;;;9.23;6.00;;;20.80;94.30;;;;;;5094991;28;20566;-47
2022/08/16 02:06:17;;;;;;;7.55;6.07;;;20.80;94.20;;;;;;5094243;28;20040;-43
2022/08/16 02:09:00;;;;;;;7.65;6.88;;;20.80;94.20;;;;;;5093227;28;20054;-52
2022/08/16 02:11:31;;;;;;;7.15;6.45;;;20.90;94.20;;;;;;5087582;28;20072;-44
2022/08/16 02:14:18;;;;;;;8.10;6.55;;;20.90;94.30;;;;;;5091851;28;20036;-52
2022/08/16 02:16:48;;;;;;;8.15;6.38;;;20.90;94.60;;;;;;5093354;28;20036;-39
2022/08/16 02:19:17;;;;;;;10.32;7.50;;;20.80;94.90;;;;;;5094086;28;20047;-41
2022/08/16 02:21:44;;;;;;;11.00;7.03;;;20.70;94.80;;;;;;5094993;28;20066;-48
2022/08/16 02:24:31;;;;;;;10.20;7.47;;;20.80;94.90;;;;;;5104787;28;20527;-44
2022/08/16 02:27:07;;;;;;;10.40;6.88;;;20.80;94.90;;;;;;5113418;28;20050;-44
2022/08/16 02:29:34;;;;;;;11.60;7.50;;;20.70;95.50;;;;;;5112507;28;20055;-43
2022/08/16 02:32:00;;;;;;;10.95;7.68;;;20.80;95.20;;;;;;5095050;28;20403;-44
2022/08/16 02:34:30;;;;;;;11.38;7.55;;;20.70;95.40;;;;;;5094650;28;20434;-46
2022/08/16 02:37:07;;;;;;;9.55;7.80;;;20.70;95.40;;;;;;5093847;28;20495;-45
2022/08/16 02:39:33;;;;;;;8.63;7.65;;;20.70;95.70;;;;;;5092878;28;20391;-50
2022/08/16 02:42:01;;;;;;;11.23;7.72;;;20.70;95.70;;;;;;5091995;28;20147;-46
2022/08/16 02:44:27;;;;;;;15.32;7.43;;;20.70;95.80;;;;;;5093536;28;20063;-54
2022/08/16 02:46:55;;;;;;;9.23;7.55;;;20.70;95.80;;;;;;5093582;28;20081;-46
2022/08/16 02:49:24;;;;;;;10.60;7.55;;;20.70;95.90;;;;;;5093481;28;20036;-42
2022/08/16 02:52:11;;;;;;;11.93;7.40;;;20.70;96.00;;;;;;5092117;28;20042;-48
2022/08/16 02:54:53;;;;;;;10.60;7.47;;;20.70;96.10;;;;;;5093481;28;20052;-43
2022/08/16 02:57:23;;;;;;;8.70;7.20;;;20.70;96.10;;;;;;5086908;28;20044;-49
2022/08/16 02:59:49;;;;;;;9.23;7.97;;;20.70;96.30;;;;;;5094725;28;20040;-43
2022/08/16 03:02:16;;;;;;;8.65;7.65;;;20.70;96.30;;;;;;5093401;28;20048;-48
2022/08/16 03:04:43;;;;;;;13.77;7.43;;;20.70;96.20;;;;;;5093335;28;20036;-49
2022/08/16 03:07:20;;;;;;;11.73;7.85;;;20.70;96.10;;;;;;5088372;28;20105;-50
2022/08/16 03:09:54;;;;;;;13.65;8.00;;;20.80;96.40;;;;;;5092784;28;20043;-47
2022/08/16 03:12:25;;;;;;;15.10;8.23;;;20.70;96.40;;;;;;5098642;28;20844;-42
2022/08/16 03:15:04;;;;;;;9.05;7.88;;;20.80;96.40;;;;;;5110634;28;20043;-46
2022/08/16 03:17:31;;;;;;;9.82;8.02;;;20.80;96.40;;;;;;5112521;28;20043;-43
2022/08/16 03:20:02;;;;;;;8.32;7.03;;;20.80;96.40;;;;;;5104642;28;20055;-47
2022/08/16 03:22:35;;;;;;;12.25;7.45;;;20.80;96.30;;;;;;5095354;28;20512;-47
2022/08/16 03:25:06;;;;;;;8.90;7.65;;;20.80;96.20;;;;;;5092902;28;20128;-51
2022/08/16 03:27:35;;;;;;;9.43;7.82;;;20.80;96.20;;;;;;5091837;28;20048;-47
2022/08/16 03:30:04;;;;;;;9.52;7.55;;;20.80;96.30;;;;;;5105943;28;20044;-44
2022/08/16 03:32:48;;;;;;;12.77;7.80;;;20.70;96.30;;;;;;5100505;28;20051;-46
2022/08/16 03:35:17;;;;;;;13.63;8.23;;;20.80;96.40;;;;;;5092771;28;20043;-47
2022/08/16 03:37:45;;;;;;;13.65;7.63;;;20.70;96.30;;;;;;5092685;28;20071;-48
2022/08/16 03:40:30;;;;;;;12.90;8.35;;;20.80;96.30;;;;;;5095261;28;20047;-46
2022/08/16 03:42:59;;;;;;;11.63;7.15;;;20.70;96.30;;;;;;5091716;28;20101;-46
2022/08/16 03:45:46;;;;;;;10.27;7.60;;;20.70;96.50;;;;;;5092779;28;20111;-46
2022/08/16 03:48:13;;;;;;;12.30;7.85;;;20.70;96.50;;;;;;5092498;28;20040;-41
2022/08/16 03:50:41;;;;;;;8.30;7.43;;;20.60;96.60;;;;;;5092720;28;20093;-44
2022/08/16 03:53:26;;;;;;;9.10;7.70;;;20.60;96.60;;;;;;5103084;28;20105;-46
2022/08/16 03:56:06;;;;;;;9.95;8.38;;;20.60;96.60;;;;;;5109339;28;20502;-44
2022/08/16 03:58:33;;;;;;;9.23;7.75;;;20.60;96.50;;;;;;5103329;28;20035;-46
2022/08/16 04:01:03;;;;;;;12.95;7.60;;;20.60;96.60;;;;;;5109318;28;20128;-48
2022/08/16 04:03:32;;;;;;;10.77;7.82;;;20.60;96.60;;;;;;5090264;28;20398;-48
2022/08/16 04:06:00;;;;;;;8.70;7.75;;;20.60;96.70;;;;;;5092287;28;20044;-43
2022/08/16 04:08:30;;;;;;;8.45;7.45;;;20.50;96.90;;;;;;5092333;28;20044;-44
2022/08/16 04:11:00;;;;;;;10.32;8.00;;;20.40;97.10;;;;;;5091231;28;20044;-43
2022/08/16 04:13:28;;;;;;;11.02;8.55;;;20.40;97.10;;;;;;5104587;28;20040;-46
2022/08/16 04:16:16;;;;;;;11.35;8.25;;;20.40;97.20;;;;;;5091381;28;20599;-48
2022/08/16 04:18:56;;;;;;;12.18;8.20;;;20.30;97.30;;;;;;5092338;28;20067;-45
2022/08/16 04:21:30;;;;;;;10.63;7.82;;;20.30;97.30;;;;;;5088036;28;20055;-50
2022/08/16 04:23:58;;;;;;;11.30;8.13;;;20.30;97.30;;;;;;5114479;28;20035;-50
2022/08/16 04:26:25;;;;;;;10.27;8.57;;;20.40;97.30;;;;;;5115905;28;20085;-54
2022/08/16 04:28:57;;;;;;;12.77;8.40;;;20.30;97.40;;;;;;5104305;28;20052;-50
2022/08/16 04:31:44;;;;;;;9.07;8.20;;;20.30;97.40;;;;;;5093725;28;20040;-48
2022/08/16 04:34:11;;;;;;;9.80;8.80;;;20.30;97.50;;;;;;5098538;28;20047;-48
2022/08/16 04:36:39;;;;;;;11.77;9.18;;;20.30;97.50;;;;;;5092631;28;20051;-49
2022/08/16 04:39:06;;;;;;;12.55;8.80;;;20.30;97.80;;;;;;5096922;28;20044;-46
2022/08/16 04:41:34;;;;;;;12.70;8.68;;;20.20;97.80;;;;;;5095845;28;20387;-49
2022/08/16 04:44:05;;;;;;;11.80;9.35;;;20.20;97.90;;;;;;5091375;28;20041;-46
2022/08/16 04:46:52;;;;;;;12.25;9.18;;;20.20;97.90;;;;;;5093943;28;20207;-51
2022/08/16 04:49:30;;;;;;;11.38;9.20;;;20.20;97.90;;;;;;5080724;28;20051;-50
2022/08/16 04:52:11;;;;;;;12.77;9.13;;;20.20;97.90;;;;;;5096026;28;20368;-48
2022/08/16 04:54:58;;;;;;;12.48;9.50;;;20.20;97.90;;;;;;5110102;27;20039;-52
2022/08/16 04:57:25;;;;;;;11.02;9.15;;;20.20;98.00;;;;;;5098016;28;20052;-50
2022/08/16 04:59:56;;;;;;;14.80;10.05;;;20.30;98.10;;;;;;5099978;28;20043;-48
2022/08/16 05:02:23;;;;;;;14.05;9.82;;;20.30;98.10;;;;;;5102654;28;20083;-50
2022/08/16 05:05:09;;;;;;;;;;;20.30;98.00;;;;;;5104581;28;20039;-48
2022/08/16 05:07:43;;;;;;;10.27;9.27;;;20.30;98.20;;;;;;5107375;28;19939;-45
2022/08/16 05:10:28;;;;;;;11.88;10.38;;;20.30;98.00;;;;;;5095583;28;20429;-46
2022/08/16 05:12:55;;;;;;;13.18;10.77;;;20.40;98.00;;;;;;5092792;28;20475;-51
2022/08/16 05:15:22;;;;;;;11.18;9.52;;;20.40;97.90;;;;;;5095467;28;20165;-54
2022/08/16 05:17:50;;;;;;;12.95;10.20;;;20.40;97.90;;;;;;5093505;28;20051;-46
2022/08/16 05:20:28;;;;;;;10.93;9.48;;;20.40;98.00;;;;;;5093689;28;20098;-43
2022/08/16 05:23:16;;;;;;;13.88;10.00;;;20.40;98.00;;;;;;5090661;28;20043;-44
2022/08/16 05:25:45;;;;;;;12.38;9.70;;;20.40;98.10;;;;;;5094293;28;20098;-51
2022/08/16 05:28:15;;;;;;;13.65;10.15;;;20.40;98.00;;;;;;5092719;28;20081;-50
2022/08/16 05:30:47;;;;;;;11.48;9.88;;;20.40;98.00;;;;;;5092885;28;20040;-44
2022/08/16 05:33:20;;;;;;;13.68;10.40;;;20.40;98.10;;;;;;5093766;28;20054;-48
2022/08/16 05:35:48;;;;;;;11.55;10.18;;;20.40;98.10;;;;;;5095060;28;20052;-48
2022/08/16 05:38:44;;;;;;;15.75;9.30;;;20.30;98.20;;;;;;5087693;28;20055;-48
2022/08/16 05:41:13;;;;;;;12.35;9.45;;;20.30;98.30;;;;;;5094849;28;20459;-52
2022/08/16 05:43:43;;;;;;;12.45;9.80;;;20.30;98.40;;;;;;5094410;28;20056;-51
2022/08/16 05:46:36;;;;;;;12.35;9.60;;;20.20;98.40;;;;;;5094250;28;20052;-49
2022/08/16 05:49:16;;;;;;;13.05;9.90;;;20.30;98.40;;;;;;5093196;28;20044;-48
2022/08/16 05:51:53;;;;;;;12.90;9.73;;;20.30;98.40;;;;;;5093034;28;20048;-52
2022/08/16 05:54:22;;;;;;;17.38;10.65;;;20.30;98.30;;;;;;5092992;28;20410;-51
2022/08/16 05:56:55;;;;;;;11.65;10.45;;;20.30;98.40;;;;;;5092950;28;20052;-48
2022/08/16 05:59:23;;;;;;;17.63;10.63;;;20.40;98.50;;;;;;5093642;28;20139;-49
2022/08/16 06:01:53;;;;;;;15.50;10.40;;;20.40;98.50;;;;;;5077906;28;20055;-53
2022/08/16 06:04:25;;;;;;;13.25;9.90;;;20.30;98.50;;;;;;5077176;28;20044;-52
2022/08/16 06:07:05;;;;;;;14.85;10.07;;;20.40;98.50;;;;;;5094464;28;20148;-52
2022/08/16 06:09:38;;;;;;;15.27;10.52;;;20.40;98.50;;;;;;5094289;28;20047;-51
2022/08/16 06:12:12;;;;;;;12.02;10.18;;;20.50;98.40;;;;;;5094237;28;20048;-49
2022/08/16 06:14:57;;;;;;;15.88;10.57;;;20.60;98.20;;;;;;5094028;28;20077;-53
2022/08/16 06:17:25;;;;;;;11.98;10.15;;;20.60;98.30;;;;;;5077562;28;20068;-46
2022/08/16 06:20:22;;;;;;;12.75;9.77;;;20.60;98.20;;;;;;5093769;28;20054;-49
2022/08/16 06:23:10;;;;;;;13.80;11.18;;;20.60;98.20;;;;;;5087768;28;20132;-46
2022/08/16 06:26:04;;;;;;;17.38;10.32;;;20.70;98.30;;;;;;5084842;28;20043;-49
2022/08/16 06:28:36;;;;;;;14.70;10.00;;;20.70;98.10;;;;;;5092973;28;20032;-50
2022/08/16 06:31:09;;;;;;;14.15;10.25;;;20.80;98.10;;;;;;5101396;28;20387;-50
2022/08/16 06:33:40;;;;;;;15.68;10.90;;;20.90;98.10;;;;;;5095246;28;20039;-54
2022/08/16 06:36:12;;;;;;;14.68;9.82;;;20.90;98.00;;;;;;5094852;28;20139;-53
2022/08/16 06:38:43;;;;;;;15.52;10.73;;;20.90;97.90;;;;;;5112865;28;20058;-50
2022/08/16 06:41:46;;;;;;;13.48;10.02;;;21.00;97.80;;;;;;5107813;28;20063;-49
2022/08/16 06:44:36;;;;;;;15.73;10.60;;;21.00;97.70;;;;;;5100249;28;20051;-49
2022/08/16 06:47:13;;;;;;;13.45;10.50;;;21.00;97.70;;;;;;5087620;28;20505;-55
2022/08/16 06:49:43;;;;;;;14.88;10.88;;;21.00;97.60;;;;;;5093359;28;20156;-52
2022/08/16 06:52:22;;;;;;;13.85;10.90;;;21.00;97.60;;;;;;5093351;28;20042;-48
2022/08/16 06:55:10;;;;;;;14.68;9.55;;;21.10;97.60;;;;;;5093093;28;20397;-50
2022/08/16 06:57:44;;;;;;;12.43;10.68;;;21.10;97.60;;;;;;5092833;28;20064;-48
2022/08/16 07:00:12;;;;;;;13.73;10.15;;;21.10;97.50;;;;;;5092786;28;20047;-50
2022/08/16 07:03:11;;;;;;;11.20;10.00;;;21.20;97.50;;;;;;5093046;28;20044;-48
2022/08/16 07:05:57;;;;;;;13.23;10.90;;;21.20;97.40;;;;;;5091508;28;20471;-55
2022/08/16 07:08:30;;;;;;;12.98;10.43;;;21.30;97.40;;;;;;5092872;28;20494;-51
2022/08/16 07:10:58;;;;;;;14.77;11.27;;;21.40;97.30;;;;;;5092788;28;20051;-53
2022/08/16 07:13:29;;;;;;;15.10;10.40;;;21.40;97.30;;;;;;5092669;28;20047;-53
2022/08/16 07:16:17;;;;;;;16.92;10.02;;;21.50;97.30;;;;;;5092731;28;20513;-47
2022/08/16 07:18:47;;;;;;;15.70;10.30;;;21.60;97.10;;;;;;5092527;28;20139;-45
2022/08/16 07:21:31;;;;;;;13.80;9.57;;;21.70;97.20;;;;;;5092610;28;20456;-49
2022/08/16 07:24:19;;;;;;;12.93;10.23;;;21.80;96.90;;;;;;5085892;28;20044;-50
2022/08/16 07:26:59;;;;;;;11.85;9.88;;;21.80;96.70;;;;;;5079528;28;20130;-47
2022/08/16 07:29:27;;;;;;;14.98;9.73;;;21.90;96.60;;;;;;5111568;28;20072;-53
2022/08/16 07:32:00;;;;;;;12.18;10.93;;;21.90;96.50;;;;;;5111541;28;20074;-48
2022/08/16 07:34:28;;;;;;;14.68;10.65;;;21.90;96.40;;;;;;5103588;28;20044;-51
2022/08/16 07:37:04;;;;;;;13.52;9.30;;;21.90;96.50;;;;;;5091973;28;20459;-56
2022/08/16 07:39:48;;;;;;;13.45;9.90;;;22.00;96.40;;;;;;5092344;28;20130;-46
2022/08/16 07:42:18;;;;;;;13.90;9.75;;;22.00;96.20;;;;;;5092092;28;20044;-49
2022/08/16 07:44:54;;;;;;;12.95;9.38;;;22.10;96.20;;;;;;5092003;28;20047;-54
2022/08/16 07:47:23;;;;;;;12.57;10.25;;;22.20;96.00;;;;;;5091838;28;20032;-49
2022/08/16 07:49:58;;;;;;;19.73;10.70;;;22.20;95.50;;;;;;5091862;28;20044;-55
2022/08/16 07:52:25;;;;;;;12.00;10.10;;;22.40;95.50;;;;;;5092125;28;20051;-46
2022/08/16 07:54:56;;;;;;;13.48;10.07;;;22.40;95.20;;;;;;5091948;28;20078;-48
2022/08/16 07:57:23;;;;;;;12.77;9.50;;;22.60;95.20;;;;;;5108373;28;20036;-46
2022/08/16 07:59:51;;;;;;;16.48;8.98;;;22.60;95.00;;;;;;5111470;28;20082;-51
2022/08/16 08:02:22;;;;;;;13.23;9.25;;;22.70;94.50;;;;;;5092668;28;20051;-46
2022/08/16 08:04:55;;;;;;;12.27;9.45;;;22.80;94.70;;;;;;5090555;28;20130;-51
2022/08/16 08:07:24;;;;;;;14.65;9.68;;;22.80;94.50;;;;;;5103241;28;20040;-54
2022/08/16 08:09:54;;;;;;;16.73;9.57;;;22.90;94.50;;;;;;5111168;28;20435;-60
2022/08/16 08:12:22;;;;;;;13.02;10.00;;;22.90;94.40;;;;;;5111397;28;20067;-51
2022/08/16 08:15:02;;;;;;;15.35;9.18;;;22.90;94.40;;;;;;5111253;28;20054;-52
2022/08/16 08:17:29;;;;;;;9.95;7.85;;;23.00;94.40;;;;;;5111240;28;20048;-52
2022/08/16 08:20:11;;;;;;;10.43;7.90;;;23.00;94.20;;;;;;5111155;28;20052;-52
2022/08/16 08:22:46;;;;;;;;;;;23.00;94.00;;;;;;5113036;28;20036;-50
2022/08/16 08:25:15;;;;;;;12.73;8.40;;;23.00;93.90;;;;;;5110986;28;19926;-54
2022/08/16 08:27:41;;;;;;;11.73;8.25;;;22.90;94.20;;;;;;5111189;28;20123;-52
2022/08/16 08:30:09;;;;;;;11.07;9.07;;;22.90;94.30;;;;;;5098953;28;20135;-51
2022/08/16 08:32:56;;;;;;;11.00;8.95;;;23.00;94.10;;;;;;5111100;28;20032;-45
2022/08/16 08:35:33;;;;;;;13.80;9.30;;;23.00;94.00;;;;;;5086476;28;20044;-51
2022/08/16 08:38:02;;;;;;;14.93;8.70;;;23.00;94.10;;;;;;5091469;28;20052;-46
2022/08/16 08:40:32;;;;;;;12.95;8.70;;;22.90;94.00;;;;;;5075315;28;20055;-50
2022/08/16 08:42:59;;;;;;;11.07;8.88;;;22.90;93.90;;;;;;5091443;28;20052;-47
2022/08/16 08:45:50;;;;;;;10.77;8.70;;;22.90;93.90;;;;;;5091637;28;20130;-51
2022/08/16 08:48:20;;;;;;;10.40;8.70;;;22.80;93.60;;;;;;5091374;28;20044;-46
2022/08/16 08:51:10;;;;;;;11.38;9.23;;;22.80;93.80;;;;;;5091553;28;20495;-52
2022/08/16 08:53:49;;;;;;;15.48;8.73;;;22.80;93.90;;;;;;5091260;28;20052;-46
2022/08/16 08:56:32;;;;;;;14.30;9.48;;;22.80;93.90;;;;;;5091480;28;20040;-50
2022/08/16 08:59:26;;;;;;;11.45;9.27;;;22.80;94.10;;;;;;5067171;28;20056;-46
2022/08/16 09:01:55;;;;;;;12.88;10.23;;;22.80;94.20;;;;;;5090976;28;20692;-48
2022/08/16 09:04:32;;;;;;;17.20;10.55;;;22.80;94.20;;;;;;5089929;28;20044;-51
2022/08/16 09:07:02;;;;;;;16.60;10.32;;;22.80;94.30;;;;;;5091359;28;20513;-50
2022/08/16 09:09:31;;;;;;;17.00;9.75;;;22.90;94.40;;;;;;5093746;28;20067;-51
2022/08/16 09:12:07;;;;;;;16.40;9.77;;;22.90;94.70;;;;;;5095131;28;20040;-49
2022/08/16 09:15:00;;;;;;;12.57;9.27;;;22.90;94.70;;;;;;5094875;28;20135;-51
2022/08/16 09:17:30;;;;;;;14.68;9.52;;;22.80;94.90;;;;;;5094731;28;20052;-48
2022/08/16 09:20:15;;;;;;;13.60;8.60;;;22.80;95.70;;;;;;5094818;28;20105;-49
2022/08/16 09:22:45;;;;;;;16.25;9.60;;;22.60;95.60;;;;;;5094540;28;20052;-50
2022/08/16 09:25:23;;;;;;;14.38;10.00;;;22.50;96.30;;;;;;5105433;27;20063;-48
2022/08/16 09:28:01;;;;;;;12.35;8.60;;;22.40;96.90;;;;;;5094754;28;20097;-53
2022/08/16 09:30:56;;;;;;;15.73;9.40;;;22.30;96.30;;;;;;5095381;28;20576;-50
2022/08/16 09:33:23;;;;;;;19.42;10.63;;;22.20;96.70;;;;;;5095627;28;20040;-47
2022/08/16 09:35:50;;;;;;;19.95;10.70;;;22.10;97.50;;;;;;5095688;28;20044;-49
2022/08/16 09:38:19;;;;;;;19.77;11.02;;;22.00;98.00;;;;;;5095752;28;20074;-48
2022/08/16 09:40:58;;;;;;;16.40;9.20;;;21.90;98.70;;;;;;5096102;28;20055;-49
2022/08/16 09:43:25;;;;;;;14.73;9.98;;;21.80;98.30;;;;;;5091011;28;20124;-52
2022/08/16 09:46:12;;;;;;;14.57;10.07;;;21.70;99.40;;;;;;5111391;28;20098;-51
2022/08/16 09:48:59;;;;;;;14.05;9.43;;;21.70;99.50;;;;;;5095567;28;20544;-49
2022/08/16 09:51:29;;;;;;;13.55;9.10;;;21.60;99.70;;;;;;5095167;28;20052;-43
2022/08/16 09:54:03;;;;;;;10.93;9.57;;;21.70;99.80;;;;;;5089279;28;20055;-52
2022/08/16 09:56:30;;;;;;;15.23;9.68;;;21.70;99.90;;;;;;5095375;28;20047;-49
2022/08/16 09:58:57;;;;;;;13.40;9.32;;;21.80;99.90;;;;;;5095352;28;20068;-52
2022/08/16 10:01:33;;;;;;;12.88;9.85;;;21.90;99.90;;;;;;5095286;28;20048;-50
2022/08/16 10:04:00;;;;;;;13.07;9.57;;;21.90;99.90;;;;;;5095035;28;20036;-50
2022/08/16 10:06:31;;;;;;;15.68;10.57;;;21.90;99.50;;;;;;5093797;28;20043;-48
2022/08/16 10:08:59;;;;;;;16.38;10.82;;;22.00;99.90;;;;;;5095439;28;20372;-49
2022/08/16 10:14:18;;;;;;;16.08;10.90;;;22.10;99.70;;;;;;5095211;28;20064;-46
2022/08/16 10:16:50;;;;;;;16.25;11.93;;;22.10;99.50;;;;;;5094797;28;20044;-50
2022/08/16 10:19:26;;;;;;;14.60;10.63;;;22.10;99.90;;;;;;5093853;28;20036;-51
2022/08/16 10:21:57;;;;;;;12.00;10.23;;;22.00;99.90;;;;;;5094859;28;20039;-49
2022/08/16 10:24:24;;;;;;;13.70;10.05;;;21.90;99.90;;;;;;5094768;28;20062;-51
2022/08/16 10:26:56;;;;;;;11.85;10.35;;;21.80;99.90;;;;;;5088185;28;20044;-55
2022/08/16 10:29:43;;;;;;;13.13;10.23;;;21.80;99.90;;;;;;5093288;28;20040;-48
2022/08/16 10:32:27;;;;;;;16.38;9.65;;;21.80;99.90;;;;;;5094675;28;20128;-45
2022/08/16 10:34:56;;;;;;;13.00;8.25;;;21.70;99.90;;;;;;5094390;28;20070;-53
2022/08/16 10:37:23;;;;;;;12.77;8.00;;;21.60;99.90;;;;;;5094388;28;20082;-48
2022/08/16 10:40:02;;;;;;;12.40;7.97;;;21.40;99.90;;;;;;5094325;28;20048;-50
2022/08/16 10:42:29;;;;;;;11.15;8.02;;;21.30;99.90;;;;;;5094693;28;20505;-45
2022/08/16 10:44:55;;;;;;;10.73;8.02;;;21.20;99.90;;;;;;5094454;28;20093;-53
2022/08/16 10:47:22;;;;;;;14.50;8.80;;;21.10;99.90;;;;;;5094286;28;20044;-50
2022/08/16 10:49:50;;;;;;;13.07;9.88;;;21.10;99.90;;;;;;5094377;28;20051;-52
2022/08/16 10:52:16;;;;;;;12.65;8.20;;;21.10;99.90;;;;;;5094159;28;20040;-43
2022/08/16 10:54:45;;;;;;;9.18;6.88;;;21.00;99.90;;;;;;5093978;28;20047;-49
2022/08/16 10:57:32;;;;;;;10.90;8.00;;;20.90;99.90;;;;;;5094051;28;20418;-48
2022/08/16 11:00:03;;;;;;;13.88;7.55;;;20.90;99.90;;;;;;5094184;28;20040;-51
2022/08/16 11:02:30;;;;;;;13.43;7.80;;;20.90;99.90;;;;;;5091358;28;20052;-52
2022/08/16 11:05:17;;;;;;;12.07;7.80;;;20.90;99.90;;;;;;5094752;28;20031;-52
2022/08/16 11:07:44;;;;;;;12.93;7.70;;;20.80;99.90;;;;;;5088598;28;20195;-53
2022/08/16 11:10:19;;;;;;;11.20;8.02;;;20.80;99.90;;;;;;5113343;28;20045;-52
2022/08/16 11:13:06;;;;;;;11.00;8.63;;;20.90;99.90;;;;;;5113259;28;20398;-50
2022/08/16 11:15:53;;;;;;;14.80;9.35;;;20.80;99.90;;;;;;5113140;28;20100;-51
2022/08/16 11:18:23;;;;;;;13.48;8.80;;;20.80;99.90;;;;;;5113331;28;20123;-53
2022/08/16 11:21:09;;;;;;;11.93;8.77;;;20.70;99.90;;;;;;5113378;28;20047;-52
2022/08/16 11:23:55;;;;;;;12.95;8.82;;;20.70;99.90;;;;;;5112953;28;20039;-50
2022/08/16 11:26:24;;;;;;;9.55;7.63;;;20.60;99.90;;;;;;5113103;28;20405;-50
2022/08/16 11:28:52;;;;;;;9.98;6.70;;;20.60;99.90;;;;;;5113163;28;20039;-50
2022/08/16 11:31:38;;;;;;;10.18;6.68;;;20.60;99.90;;;;;;5088314;28;20044;-47
2022/08/16 11:34:11;;;;;;;10.13;5.18;;;20.60;99.90;;;;;;5093175;28;20042;-54
2022/08/16 11:36:38;;;;;;;6.53;4.45;;;20.60;99.90;;;;;;5093301;28;20047;-44
2022/08/16 11:39:19;;;;;;;4.05;3.30;;;20.60;99.90;;;;;;5093530;28;20059;-57
2022/08/16 11:41:46;;;;;;;4.57;3.45;;;20.70;99.90;;;;;;5093372;28;20071;-48
2022/08/16 11:44:18;;;;;;;5.75;3.88;;;20.90;99.90;;;;;;5093348;28;20063;-53
2022/08/16 11:47:05;;;;;;;7.63;3.88;;;21.00;99.90;;;;;;5087511;28;20407;-47
2022/08/16 11:49:32;;;;;;;7.40;3.92;;;21.30;99.90;;;;;;5093316;28;20036;-54
2022/08/16 11:51:59;;;;;;;5.82;3.83;;;21.50;99.90;;;;;;5093139;28;20510;-53
2022/08/16 11:54:26;;;;;;;5.20;3.47;;;21.60;99.90;;;;;;5093263;28;20040;-48
2022/08/16 11:57:01;;;;;;;5.53;3.10;;;21.80;99.90;;;;;;5093123;28;20432;-47
2022/08/16 11:59:28;;;;;;;5.70;3.42;;;21.90;99.90;;;;;;5085929;28;20032;-50
2022/08/16 12:01:58;;;;;;;3.97;2.75;;;22.00;99.90;;;;;;5092226;28;20048;-48
2022/08/16 12:04:45;;;;;;;4.32;2.70;;;22.10;99.90;;;;;;5091767;28;20047;-49
2022/08/16 12:07:17;;;;;;;6.13;2.70;;;22.10;99.00;;;;;;5092915;28;20048;-51
2022/08/16 12:09:44;;;;;;;3.85;2.33;;;22.30;99.30;;;;;;5093004;28;20757;-49
2022/08/16 12:12:11;;;;;;;3.72;2.22;;;22.40;99.90;;;;;;5092960;28;20073;-52
2022/08/16 12:14:38;;;;;;;4.32;2.60;;;22.50;99.10;;;;;;5093024;28;20455;-51
2022/08/16 12:17:05;;;;;;;5.85;2.13;;;22.50;99.10;;;;;;5093024;28;20394;-52
2022/08/16 12:19:33;;;;;;;3.13;1.77;;;22.70;98.80;;;;;;5109765;28;20093;-47
2022/08/16 12:22:01;;;;;;;3.10;2.00;;;22.80;97.50;;;;;;5101026;28;20051;-48
2022/08/16 12:24:44;;;;;;;5.32;2.22;;;22.90;98.30;;;;;;5086701;28;20093;-51
2022/08/16 12:27:13;;;;;;;4.10;1.95;;;23.00;98.00;;;;;;5092885;28;20063;-46
2022/08/16 12:29:40;;;;;;;3.63;2.10;;;23.00;97.70;;;;;;5092958;28;20044;-47
2022/08/16 12:32:07;;;;;;;3.08;2.17;;;23.20;97.70;;;;;;5092984;28;20040;-41
2022/08/16 12:34:54;;;;;;;3.47;1.98;;;23.30;97.80;;;;;;5092997;28;20036;-50
2022/08/16 12:37:21;;;;;;;3.35;1.95;;;23.40;96.70;;;;;;5091894;28;20105;-54
2022/08/16 12:39:50;;;;;;;3.33;1.80;;;23.40;96.50;;;;;;5092940;28;20133;-48
2022/08/16 12:42:18;;;;;;;3.80;1.83;;;23.40;97.10;;;;;;5092760;28;20051;-46
2022/08/16 12:44:46;;;;;;;3.28;1.95;;;23.50;97.20;;;;;;5095551;28;20147;-50
2022/08/16 12:49:58;;;;;;;3.78;1.40;;;23.50;95.60;;;;;;5090998;28;20078;-51
2022/08/16 12:52:26;;;;;;;2.30;1.40;;;23.60;94.90;;;;;;5111540;28;20089;-45
2022/08/16 12:54:59;;;;;;;2.25;1.35;;;23.60;94.30;;;;;;5094047;28;20040;-53
2022/08/16 12:57:26;;;;;;;3.50;1.67;;;23.50;95.00;;;;;;5094706;28;20040;-48
2022/08/16 13:00:02;;;;;;;2.63;1.33;;;23.60;94.40;;;;;;5091104;28;20032;-49
2022/08/16 13:02:30;;;;;;;2.45;1.40;;;23.60;94.40;;;;;;5096265;28;20052;-46
2022/08/16 13:05:02;;;;;;;2.40;1.38;;;23.60;93.30;;;;;;5095543;28;20044;-50
2022/08/16 13:07:30;;;;;;;2.45;1.50;;;23.60;94.40;;;;;;5093555;28;20513;-53
2022/08/16 13:10:11;;;;;;;3.17;1.25;;;23.60;94.30;;;;;;5096224;28;20040;-52
2022/08/16 13:12:58;;;;;;;3.70;1.70;;;23.50;94.20;;;;;;5114838;28;20032;-52
2022/08/16 13:15:25;;;;;;;4.25;1.50;;;23.60;95.20;;;;;;5115738;28;20147;-51
2022/08/16 13:17:53;;;;;;;2.83;1.63;;;23.50;95.00;;;;;;5089409;28;20051;-49